createdAt,value
2023-01-06T00:01:19.831Z,100935.34
2023-01-06T00:03:50.355Z,100930.16
2023-01-06T00:06:18.304Z,100931.34
2023-01-06T00:08:46.249Z,100924.06
2023-01-06T00:11:16.111Z,100924.09
2023-01-06T00:13:43.900Z,100928.41
2023-01-06T00:16:13.478Z,100927.94
2023-01-06T00:18:43.139Z,100927.69
2023-01-06T00:21:11.444Z,100926.34
2023-01-06T00:23:40.306Z,100918.66
2023-01-06T00:26:10.252Z,100923.16
2023-01-06T00:28:38.463Z,100916.94
2023-01-06T00:31:08.067Z,100915.41
2023-01-06T00:33:35.937Z,100917.69
2023-01-06T00:36:06.864Z,100916.69
2023-01-06T00:38:36.299Z,100913.28
2023-01-06T00:41:25.986Z,100906.59
2023-01-06T00:43:53.799Z,100908.34
2023-01-06T00:46:22.628Z,100907.38
2023-01-06T00:49:04.244Z,100907.03
2023-01-06T00:51:37.004Z,100909.91
2023-01-06T00:54:06.326Z,100902.16
2023-01-06T00:56:37.103Z,100895.31
2023-01-06T00:59:05.583Z,100899.03
2023-01-06T01:01:34.061Z,100896.63
2023-01-06T01:04:02.160Z,100896.78
2023-01-06T01:06:29.933Z,100890.72
2023-01-06T01:09:01.047Z,100884.91
2023-01-06T01:11:47.222Z,100882.16
2023-01-06T01:14:16.353Z,100884.84
2023-01-06T01:16:44.059Z,100883.19
2023-01-06T01:19:12.186Z,100884.13
2023-01-06T01:21:40.204Z,100880.59
2023-01-06T01:24:10.248Z,100882.19
2023-01-06T01:26:38.274Z,100887.50
2023-01-06T01:29:06.420Z,100879.66
2023-01-06T01:31:34.355Z,100879.59
2023-01-06T01:34:02.770Z,100885.50
2023-01-06T01:36:30.963Z,100890.84
2023-01-06T01:38:59.392Z,100886.59
2023-01-06T01:41:30.059Z,100892.94
2023-01-06T01:44:00.268Z,100898.31
2023-01-06T01:46:31.122Z,100900.91
2023-01-06T01:49:01.554Z,100900.03
2023-01-06T01:51:39.883Z,100901.91
2023-01-06T01:54:11.997Z,100893.34
2023-01-06T01:56:45.840Z,100894.25
2023-01-06T01:59:17.003Z,100901.19
2023-01-06T02:01:46.414Z,100896.09
2023-01-06T02:04:15.503Z,100901.41
2023-01-06T02:06:43.909Z,100896.09
2023-01-06T02:09:16.678Z,100894.38
2023-01-06T02:11:47.408Z,100886.59
2023-01-06T02:14:17.347Z,100880.31
2023-01-06T02:16:57.653Z,100889.00
2023-01-06T02:20:16.311Z,100881.25
2023-01-06T02:23:16.564Z,100885.50
2023-01-06T02:26:11.639Z,100881.09
2023-01-06T02:28:59.299Z,100883.84
2023-01-06T02:31:57.010Z,100872.00
2023-01-06T02:34:39.733Z,100875.75
2023-01-06T02:37:17.684Z,100873.25
2023-01-06T02:39:58.701Z,100861.13
2023-01-06T02:42:34.381Z,100867.19
2023-01-06T02:45:12.671Z,100861.28
2023-01-06T02:47:53.331Z,100872.13
2023-01-06T02:50:27.642Z,100870.72
2023-01-06T02:53:07.233Z,100868.97
2023-01-06T02:55:39.864Z,100860.34
2023-01-06T02:58:13.870Z,100861.03
2023-01-06T03:00:46.258Z,100851.72
2023-01-06T03:03:21.201Z,100857.56
2023-01-06T03:05:53.181Z,100859.28
2023-01-06T03:08:25.241Z,100863.72
2023-01-06T03:10:55.505Z,100855.13
2023-01-06T03:13:30.901Z,100849.91
2023-01-06T03:16:00.660Z,100843.13
2023-01-06T03:18:30.398Z,100851.94
2023-01-06T03:21:03.797Z,100848.72
2023-01-06T03:23:31.550Z,100841.03
2023-01-06T03:25:59.454Z,100845.53
2023-01-06T03:28:28.170Z,100841.28
2023-01-06T03:31:16.258Z,100842.03
2023-01-06T03:33:59.009Z,100848.19
2023-01-06T03:36:36.177Z,100840.16
2023-01-06T03:39:15.441Z,100851.25
2023-01-06T03:42:06.125Z,100845.84
2023-01-06T03:44:44.171Z,100851.13
2023-01-06T03:47:17.012Z,100849.28
2023-01-06T03:49:54.808Z,100848.28
2023-01-06T03:52:28.818Z,100848.06
2023-01-06T03:55:00.537Z,100847.16
2023-01-06T03:57:32.541Z,100834.91
2023-01-06T04:00:05.758Z,100833.91
2023-01-06T04:02:42.208Z,100833.59
2023-01-06T04:05:18.947Z,100836.13
2023-01-06T04:07:48.754Z,100831.75
2023-01-06T04:10:20.114Z,100834.78
2023-01-06T04:12:50.408Z,100828.00
2023-01-06T04:15:24.069Z,100842.94
2023-01-06T04:17:54.279Z,100829.94
2023-01-06T04:20:25.964Z,100823.03
2023-01-06T04:22:59.514Z,100822.81
2023-01-06T04:25:32.613Z,100827.94
2023-01-06T04:28:07.340Z,100822.06
2023-01-06T04:30:35.573Z,100819.44
2023-01-06T04:33:04.578Z,100823.88
2023-01-06T04:35:33.742Z,100817.94
2023-01-06T04:38:03.140Z,100816.34
2023-01-06T04:40:30.839Z,100816.38
2023-01-06T04:43:07.346Z,100810.22
2023-01-06T04:45:35.467Z,100815.50
2023-01-06T04:48:03.347Z,100813.63
2023-01-06T04:50:31.145Z,100817.53
2023-01-06T04:53:00.443Z,100809.53
2023-01-06T04:55:28.481Z,100811.19
2023-01-06T04:57:56.224Z,100806.78
2023-01-06T05:00:23.976Z,100811.78
2023-01-06T05:02:52.018Z,100817.69
2023-01-06T05:05:19.887Z,100818.00
2023-01-06T05:07:47.500Z,100825.03
2023-01-06T05:10:16.585Z,100829.56
2023-01-06T05:12:44.444Z,100818.22
2023-01-06T05:15:12.967Z,100826.97
2023-01-06T05:17:40.679Z,100829.56
2023-01-06T05:20:09.333Z,100836.56
2023-01-06T05:22:37.233Z,100834.91
2023-01-06T05:25:05.327Z,100840.22
2023-01-06T05:27:34.593Z,100835.63
2023-01-06T05:30:02.691Z,100848.63
2023-01-06T05:32:30.416Z,100838.28
2023-01-06T05:34:58.131Z,100838.28
2023-01-06T05:37:25.813Z,100839.09
2023-01-06T05:39:53.553Z,100838.59
2023-01-06T05:42:21.165Z,100834.38
2023-01-06T05:44:50.252Z,100822.88
2023-01-06T05:47:17.956Z,100821.59
2023-01-06T05:49:46.903Z,100827.66
2023-01-06T05:52:14.655Z,100828.19
2023-01-06T05:54:42.586Z,100821.44
2023-01-06T05:57:11.626Z,100827.47
2023-01-06T05:59:39.368Z,100838.78
2023-01-06T06:02:08.535Z,100841.56
2023-01-06T06:04:36.349Z,100840.16
2023-01-06T06:07:04.176Z,100851.66
2023-01-06T06:09:31.933Z,100853.47
2023-01-06T06:11:59.630Z,100846.56
2023-01-06T06:14:27.505Z,100852.63
2023-01-06T06:16:56.120Z,100848.94
2023-01-06T06:19:25.293Z,100847.53
2023-01-06T06:21:53.723Z,100836.53
2023-01-06T06:24:21.431Z,100835.66
2023-01-06T06:26:49.192Z,100845.16
2023-01-06T06:29:16.882Z,100850.41
2023-01-06T06:31:45.175Z,100849.59
2023-01-06T06:34:14.286Z,100860.81
2023-01-06T06:36:43.520Z,100863.41
2023-01-06T06:39:11.183Z,100858.13
2023-01-06T06:41:38.993Z,100841.78
2023-01-06T06:44:06.967Z,100840.19
2023-01-06T06:46:34.660Z,100848.91
2023-01-06T06:49:02.461Z,100848.09
2023-01-06T06:51:31.335Z,100849.56
2023-01-06T06:54:00.510Z,100856.50
2023-01-06T06:56:28.443Z,100860.13
2023-01-06T06:58:56.377Z,100865.38
2023-01-06T07:01:24.208Z,100868.13
2023-01-06T07:03:52.116Z,100884.56
2023-01-06T07:06:22.113Z,100892.59
2023-01-06T07:08:50.574Z,100893.59
2023-01-06T07:11:19.874Z,100894.47
2023-01-06T07:13:48.089Z,100888.47
2023-01-06T07:16:16.118Z,100888.47
2023-01-06T07:18:44.136Z,100889.28
2023-01-06T07:21:13.166Z,100893.94
2023-01-06T07:23:41.017Z,100887.84
2023-01-06T07:26:09.266Z,100893.38
2023-01-06T07:28:38.690Z,100901.38
2023-01-06T07:31:06.805Z,100901.47
2023-01-06T07:33:34.710Z,100898.56
2023-01-06T07:36:02.460Z,100891.00
2023-01-06T07:38:30.162Z,100895.84
2023-01-06T07:41:01.256Z,100880.13
2023-01-06T07:43:29.365Z,100881.09
2023-01-06T07:45:58.609Z,100899.38
2023-01-06T07:48:26.516Z,100902.03
2023-01-06T07:50:54.287Z,100901.16
2023-01-06T07:53:22.242Z,100907.19
2023-01-06T07:55:53.799Z,100909.47
2023-01-06T07:58:23.822Z,100918.25
2023-01-06T08:00:51.693Z,100917.06
2023-01-06T08:03:21.269Z,100911.16
2023-01-06T08:05:49.544Z,100918.59
2023-01-06T08:08:17.426Z,100928.38
2023-01-06T08:10:45.187Z,100925.53
2023-01-06T08:13:12.970Z,100924.09
2023-01-06T08:15:41.156Z,100918.06
2023-01-06T08:18:09.193Z,100918.09
2023-01-06T08:20:38.607Z,100916.47
2023-01-06T08:23:06.547Z,100913.69
2023-01-06T08:25:34.446Z,100910.03
2023-01-06T08:28:02.356Z,100911.09
2023-01-06T08:30:30.376Z,100902.41
2023-01-06T08:32:58.866Z,100909.31
2023-01-06T08:35:26.654Z,100917.63
2023-01-06T08:37:55.816Z,100915.78
2023-01-06T08:40:23.611Z,100919.59
2023-01-06T08:42:51.390Z,100918.00
2023-01-06T08:45:19.344Z,100922.47
2023-01-06T08:47:47.212Z,100926.00
2023-01-06T08:50:14.974Z,100920.59
2023-01-06T08:52:42.708Z,100908.34
2023-01-06T08:55:11.874Z,100910.09
2023-01-06T08:57:39.580Z,100908.34
2023-01-06T09:00:08.881Z,100901.38
2023-01-06T09:02:36.598Z,100898.19
2023-01-06T09:05:04.839Z,100900.59
2023-01-06T09:07:32.688Z,100900.03
2023-01-06T09:10:00.447Z,100903.31
2023-01-06T09:12:29.682Z,100909.41
2023-01-06T09:14:57.489Z,100911.88
2023-01-06T09:17:25.323Z,100914.66
2023-01-06T09:19:53.047Z,100913.66
2023-01-06T09:22:20.790Z,100916.25
2023-01-06T09:24:48.747Z,100917.00
2023-01-06T09:27:16.552Z,100931.19
2023-01-06T09:29:45.630Z,100928.22
2023-01-06T09:32:13.534Z,100914.81
2023-01-06T09:34:41.267Z,100923.91
2023-01-06T09:37:09.249Z,100924.41
2023-01-06T09:39:37.946Z,100916.59
2023-01-06T09:42:34.121Z,100926.16
2023-01-06T09:45:06.796Z,100936.94
2023-01-06T09:47:39.005Z,100943.94
2023-01-06T09:50:11.191Z,100936.91
2023-01-06T09:52:42.363Z,100944.53
2023-01-06T09:55:17.698Z,100946.03
2023-01-06T09:57:51.275Z,100939.13
2023-01-06T10:00:34.293Z,100935.47
2023-01-06T10:03:02.238Z,100927.00
2023-01-06T10:05:38.510Z,100932.94
2023-01-06T10:08:17.754Z,100931.19
2023-01-06T10:10:55.328Z,100919.34
2023-01-06T10:13:35.113Z,100922.75
2023-01-06T10:16:14.034Z,100934.03
2023-01-06T10:18:54.071Z,100936.88
2023-01-06T10:21:32.064Z,100934.19
2023-01-06T10:24:13.393Z,100940.00
2023-01-06T10:26:44.706Z,100942.13
2023-01-06T10:29:16.630Z,100949.91
2023-01-06T10:31:47.461Z,100949.03
2023-01-06T10:34:21.020Z,100951.03
2023-01-06T10:36:53.987Z,100946.31
2023-01-06T10:39:24.815Z,100942.56
2023-01-06T10:42:16.484Z,100931.31
2023-01-06T10:44:44.289Z,100927.84
2023-01-06T10:47:21.778Z,100915.28
2023-01-06T10:49:49.892Z,100918.91
2023-01-06T10:52:17.780Z,100909.41
2023-01-06T10:54:46.317Z,100913.59
2023-01-06T10:57:23.001Z,100918.38
2023-01-06T11:00:18.261Z,100915.88
2023-01-06T11:02:49.518Z,100917.75
2023-01-06T11:05:19.834Z,100924.72
2023-01-06T11:07:56.874Z,100925.41
2023-01-06T11:10:31.486Z,100916.88
2023-01-06T11:13:02.681Z,100896.03
2023-01-06T11:15:39.164Z,100887.16
2023-01-06T11:18:20.277Z,100880.91
2023-01-06T11:21:03.165Z,100866.34
2023-01-06T11:23:30.935Z,100857.44
2023-01-06T11:26:07.157Z,100859.06
2023-01-06T11:28:34.881Z,100855.16
2023-01-06T11:31:05.912Z,100854.88
2023-01-06T11:33:37.798Z,100853.13
2023-01-06T11:36:10.547Z,100849.16
2023-01-06T11:38:46.592Z,100847.28
2023-01-06T11:41:21.867Z,100846.13
2023-01-06T11:43:51.760Z,100842.19
2023-01-06T11:46:25.347Z,100846.75
2023-01-06T11:49:01.486Z,100831.19
2023-01-06T11:51:34.415Z,100824.72
2023-01-06T11:54:02.505Z,100817.72
2023-01-06T11:56:30.237Z,100807.31
2023-01-06T11:59:05.209Z,100818.78
2023-01-06T12:01:40.261Z,100823.22
2023-01-06T12:04:17.953Z,100812.16
2023-01-06T12:06:45.771Z,100824.72
2023-01-06T12:09:19.113Z,100824.13
2023-01-06T12:11:49.430Z,100817.78
2023-01-06T12:14:28.668Z,100821.28
2023-01-06T12:17:04.958Z,100814.00
2023-01-06T12:19:40.587Z,100818.13
2023-01-06T12:22:22.664Z,100808.50
2023-01-06T12:24:52.400Z,100808.75
2023-01-06T12:27:28.657Z,100820.63
2023-01-06T12:29:59.489Z,100831.22
2023-01-06T12:32:32.786Z,100831.25
2023-01-06T12:35:04.358Z,100831.78
2023-01-06T12:37:36.205Z,100843.78
2023-01-06T12:40:13.280Z,100841.84
2023-01-06T12:42:48.351Z,100833.47
2023-01-06T12:45:20.124Z,100853.56
2023-01-06T12:47:54.270Z,100848.25
2023-01-06T12:50:34.557Z,100844.13
2023-01-06T12:53:19.931Z,100855.34
2023-01-06T12:55:58.097Z,100855.91
2023-01-06T12:58:32.817Z,100850.19
2023-01-06T13:01:05.299Z,100849.78
2023-01-06T13:03:56.198Z,100848.19
2023-01-06T13:06:47.394Z,100855.41
2023-01-06T13:09:41.081Z,100857.47
2023-01-06T13:12:39.824Z,100857.44
2023-01-06T13:15:15.855Z,100856.31
2023-01-06T13:17:50.194Z,100855.69
2023-01-06T13:20:24.157Z,100853.16
2023-01-06T13:23:06.731Z,100855.56
2023-01-06T13:26:06.089Z,100847.06
2023-01-06T13:28:44.961Z,100853.13
2023-01-06T13:31:33.737Z,100856.63
2023-01-06T13:34:21.976Z,100854.47
2023-01-06T13:37:18.442Z,100856.44
2023-01-06T13:39:50.511Z,100846.44
2023-01-06T13:42:23.536Z,100860.41
2023-01-06T13:44:51.396Z,100858.66
2023-01-06T13:47:23.160Z,100856.00
2023-01-06T13:49:51.298Z,100862.84
2023-01-06T13:52:22.896Z,100862.81
2023-01-06T13:55:20.981Z,100858.53
2023-01-06T13:57:48.794Z,100860.41
2023-01-06T14:00:24.818Z,100861.22
2023-01-06T14:03:21.367Z,100848.03
2023-01-06T14:05:54.089Z,100852.06
2023-01-06T14:08:23.413Z,100855.84
2023-01-06T14:11:03.112Z,100863.81
2023-01-06T14:13:34.563Z,100865.00
2023-01-06T14:16:06.868Z,100862.97
2023-01-06T14:18:44.322Z,100868.34
2023-01-06T14:21:23.738Z,100875.25
2023-01-06T14:23:58.285Z,100872.25
2023-01-06T14:26:49.981Z,100880.63
2023-01-06T14:29:46.631Z,100879.88
2023-01-06T14:33:02.223Z,100873.84
2023-01-06T14:35:34.016Z,100868.94
2023-01-06T14:38:04.129Z,100870.53
2023-01-06T14:40:36.646Z,100867.97
2023-01-06T14:43:23.124Z,100865.41
2023-01-06T14:45:51.950Z,100869.34
2023-01-06T14:48:24.357Z,100868.41
2023-01-06T14:50:58.808Z,100872.69
2023-01-06T14:53:33.791Z,100878.16
2023-01-06T14:56:01.820Z,100872.06
2023-01-06T14:58:32.882Z,100877.69
2023-01-06T15:01:03.033Z,100879.59
2023-01-06T15:03:32.772Z,100870.44
2023-01-06T15:06:12.607Z,100878.75
2023-01-06T15:08:40.351Z,100872.06
2023-01-06T15:11:22.805Z,100878.13
2023-01-06T15:13:51.944Z,100887.38
2023-01-06T15:16:26.225Z,100883.75
2023-01-06T15:18:54.973Z,100879.72
2023-01-06T15:21:24.901Z,100886.13
2023-01-06T15:23:55.218Z,100883.09
2023-01-06T15:26:26.180Z,100890.53
2023-01-06T15:29:01.713Z,100891.41
2023-01-06T15:31:32.975Z,100882.16
2023-01-06T15:34:02.270Z,100872.38
2023-01-06T15:36:31.183Z,100879.84
2023-01-06T15:39:03.313Z,100872.06
2023-01-06T15:41:36.072Z,100873.81
2023-01-06T15:44:22.542Z,100874.13
2023-01-06T15:46:52.237Z,100874.78
2023-01-06T15:49:27.071Z,100888.66
2023-01-06T15:51:58.586Z,100892.47
2023-01-06T15:54:28.276Z,100882.06
2023-01-06T15:56:58.600Z,100876.59
2023-01-06T15:59:30.593Z,100873.38
2023-01-06T16:01:58.607Z,100873.19
2023-01-06T16:04:26.752Z,100890.31
2023-01-06T16:06:54.588Z,100889.16
2023-01-06T16:09:35.915Z,100896.50
2023-01-06T16:12:18.270Z,100905.97
2023-01-06T16:14:49.326Z,100905.69
2023-01-06T16:17:28.788Z,100906.75
2023-01-06T16:20:00.862Z,100901.94
2023-01-06T16:22:33.837Z,100910.72
2023-01-06T16:25:03.692Z,100905.50
2023-01-06T16:27:31.701Z,100905.38
2023-01-06T16:30:22.093Z,100907.69
2023-01-06T16:32:52.460Z,100901.41
2023-01-06T16:35:22.322Z,100903.00
2023-01-06T16:37:51.000Z,100905.34
2023-01-06T16:40:20.178Z,100895.22
2023-01-06T16:42:48.542Z,100904.28
2023-01-06T16:45:27.840Z,100901.41
2023-01-06T16:47:56.493Z,100902.47
2023-01-06T16:50:27.039Z,100905.41
2023-01-06T16:53:04.476Z,100890.66
2023-01-06T16:55:33.131Z,100892.25
2023-01-06T16:58:01.694Z,100886.69
2023-01-06T17:00:43.934Z,100893.94
2023-01-06T17:03:14.620Z,100887.84
2023-01-06T17:05:42.643Z,100893.69
2023-01-06T17:08:12.960Z,100893.22
2023-01-06T17:10:40.806Z,100891.25
2023-01-06T17:13:31.732Z,100892.59
2023-01-06T17:16:03.169Z,100892.09
2023-01-06T17:18:32.663Z,100892.25
2023-01-06T17:21:04.484Z,100890.84
2023-01-06T17:23:41.846Z,100890.94
2023-01-06T17:26:14.648Z,100895.44
2023-01-06T17:28:43.558Z,100900.81
2023-01-06T17:31:15.956Z,100899.97
2023-01-06T17:33:45.267Z,100901.06
2023-01-06T17:36:22.865Z,100897.69
2023-01-06T17:38:50.756Z,100898.50
2023-01-06T17:41:19.518Z,100900.28
2023-01-06T17:43:47.983Z,100900.31
2023-01-06T17:46:24.044Z,100898.75
2023-01-06T17:48:58.157Z,100901.47
2023-01-06T17:51:25.905Z,100895.81
2023-01-06T17:54:11.224Z,100899.47
2023-01-06T17:56:39.118Z,100899.13
2023-01-06T17:59:18.372Z,100890.38
2023-01-06T18:01:47.475Z,100892.13
2023-01-06T18:04:16.584Z,100893.94
2023-01-06T18:06:52.575Z,100903.91
2023-01-06T18:09:23.404Z,100903.34
2023-01-06T18:11:52.365Z,100902.97
2023-01-06T18:14:23.850Z,100899.56
2023-01-06T18:16:56.466Z,100900.31
2023-01-06T18:19:38.727Z,100905.25
2023-01-06T18:22:15.865Z,100916.38
2023-01-06T18:24:44.612Z,100910.91
2023-01-06T18:27:20.348Z,100912.81
2023-01-06T18:29:48.008Z,100916.38
2023-01-06T18:32:31.083Z,100917.88
2023-01-06T18:35:00.142Z,100914.38
2023-01-06T18:37:29.888Z,100910.44
2023-01-06T18:39:59.946Z,100903.41
2023-01-06T18:42:30.027Z,100894.22
2023-01-06T18:45:03.053Z,100901.78
2023-01-06T18:47:32.682Z,100906.66
2023-01-06T18:50:19.102Z,100909.66
2023-01-06T18:52:49.288Z,100905.47
2023-01-06T18:55:23.114Z,100906.59
2023-01-06T18:57:59.871Z,100910.38
2023-01-06T19:00:47.590Z,100907.13
2023-01-06T19:03:40.602Z,100918.09
2023-01-06T19:06:30.546Z,100918.59
2023-01-06T19:08:58.435Z,100926.25
2023-01-06T19:11:28.164Z,100930.72
2023-01-06T19:13:59.297Z,100931.47
2023-01-06T19:16:35.126Z,100935.06
2023-01-06T19:19:23.165Z,100927.38
2023-01-06T19:21:51.829Z,100921.41
2023-01-06T19:24:53.420Z,100932.47
2023-01-06T19:27:46.786Z,100926.00
2023-01-06T19:30:34.385Z,100926.19
2023-01-06T19:33:19.641Z,100926.75
2023-01-06T19:35:49.039Z,100927.00
2023-01-06T19:38:27.119Z,100928.22
2023-01-06T19:40:56.393Z,100924.25
2023-01-06T19:43:29.866Z,100926.13
2023-01-06T19:45:58.277Z,100931.22
2023-01-06T19:48:30.249Z,100925.84
2023-01-06T19:51:03.500Z,100925.56
2023-01-06T19:53:42.217Z,100925.91
2023-01-06T19:56:19.530Z,100935.19
2023-01-06T19:58:52.567Z,100931.59
2023-01-06T20:01:22.270Z,100926.41
2023-01-06T20:03:51.519Z,100934.53
2023-01-06T20:06:20.935Z,100932.94
2023-01-06T20:08:52.221Z,100927.03
2023-01-06T20:11:20.463Z,100930.59
2023-01-06T20:13:48.374Z,100923.75
2023-01-06T20:16:16.359Z,100917.69
2023-01-06T20:18:44.154Z,100923.00
2023-01-06T20:21:11.899Z,100926.63
2023-01-06T20:23:40.953Z,100917.19
2023-01-06T20:26:08.802Z,100920.81
2023-01-06T20:28:36.645Z,100922.63
2023-01-06T20:31:04.515Z,100926.31
2023-01-06T20:33:32.251Z,100927.34
2023-01-06T20:35:59.955Z,100930.03
2023-01-06T20:38:27.692Z,100918.78
2023-01-06T20:40:56.824Z,100920.50
2023-01-06T20:43:24.947Z,100915.19
2023-01-06T20:45:52.921Z,100920.28
2023-01-06T20:48:20.586Z,100925.31
2023-01-06T20:50:48.264Z,100927.59
2023-01-06T20:53:15.966Z,100925.63
2023-01-06T20:55:43.691Z,100921.84
2023-01-06T20:58:12.840Z,100929.09
2023-01-06T21:00:40.710Z,100930.94
2023-01-06T21:03:08.758Z,100926.75
2023-01-06T21:05:36.605Z,100919.72
2023-01-06T21:08:04.515Z,100915.38
2023-01-06T21:10:32.224Z,100909.16
2023-01-06T21:12:59.999Z,100914.22
2023-01-06T21:15:29.108Z,100909.16
2023-01-06T21:17:57.163Z,100914.91
2023-01-06T21:20:24.841Z,100909.88
2023-01-06T21:22:52.564Z,100915.16
2023-01-06T21:25:20.400Z,100914.06
2023-01-06T21:27:48.063Z,100920.88
2023-01-06T21:30:17.017Z,100925.31
2023-01-06T21:32:46.179Z,100916.34
2023-01-06T21:35:13.879Z,100919.00
2023-01-06T21:37:41.546Z,100920.78
2023-01-06T21:40:11.137Z,100923.25
2023-01-06T21:42:56.730Z,100924.81
2023-01-06T21:45:24.499Z,100926.41
2023-01-06T21:47:53.547Z,100923.28
2023-01-06T21:50:22.414Z,100920.88
2023-01-06T21:52:50.520Z,100925.25
2023-01-06T21:55:18.532Z,100924.38
2023-01-06T21:57:46.427Z,100917.50
2023-01-06T22:00:15.144Z,100917.13
2023-01-06T22:02:43.069Z,100912.94
2023-01-06T22:05:12.476Z,100904.28
2023-01-06T22:07:43.419Z,100909.88
2023-01-06T22:10:12.798Z,100908.28
2023-01-06T22:12:41.578Z,100907.66
2023-01-06T22:15:10.441Z,100910.25
2023-01-06T22:17:38.638Z,100916.34
2023-01-06T22:20:07.736Z,100910.25
2023-01-06T22:22:37.425Z,100905.22
2023-01-06T22:25:06.225Z,100905.94
2023-01-06T22:27:33.923Z,100903.97
2023-01-06T22:30:01.667Z,100903.28
2023-01-06T22:32:29.349Z,100898.91
2023-01-06T22:34:57.246Z,100898.78
2023-01-06T22:37:25.031Z,100901.41
2023-01-06T22:39:54.122Z,100904.97
2023-01-06T22:42:22.718Z,100908.97
2023-01-06T22:44:50.641Z,100910.19
2023-01-06T22:47:18.361Z,100911.66
2023-01-06T22:49:46.003Z,100915.44
2023-01-06T22:52:13.657Z,100918.94
2023-01-06T22:54:41.346Z,100914.47
2023-01-06T22:57:10.358Z,100912.84
2023-01-06T22:59:38.079Z,100914.59
2023-01-06T23:02:06.033Z,100916.31
2023-01-06T23:04:33.896Z,100911.75
2023-01-06T23:07:01.748Z,100916.44
2023-01-06T23:09:29.522Z,100913.63
2023-01-06T23:11:57.143Z,100918.91
2023-01-06T23:14:26.389Z,100914.59
2023-01-06T23:16:54.108Z,100920.66
2023-01-06T23:19:21.920Z,100915.38
2023-01-06T23:21:49.609Z,100911.06
2023-01-06T23:24:17.669Z,100914.59
2023-01-06T23:26:46.797Z,100916.44
2023-01-06T23:29:15.245Z,100918.19
2023-01-06T23:31:46.309Z,100905.25
2023-01-06T23:34:16.243Z,100901.72
2023-01-06T23:36:44.826Z,100903.97
2023-01-06T23:39:15.214Z,100909.38
2023-01-06T23:41:42.947Z,100903.34
2023-01-06T23:44:14.411Z,100906.69
2023-01-06T23:46:42.446Z,100901.53
2023-01-06T23:49:15.698Z,100909.31
2023-01-06T23:51:44.176Z,100898.19
2023-01-06T23:54:12.896Z,100884.31
2023-01-06T23:56:40.750Z,100890.59
2023-01-06T23:59:09.940Z,100892.25
